sensor_id;sensor_type;location;lat;lon;timestamp;pressure;altitude;pressure_sealevel;temperature;humidity
33949;BME280;20229;49.856;19.030;2022-11-30T00:00:38;102463.02;;;-0.06;97.45
33949;BME280;20229;49.856;19.030;2022-11-30T00:06:06;102454.95;;;-0.04;97.40
33949;BME280;20229;49.856;19.030;2022-11-30T00:11:13;102459.55;;;0.02;97.03
33949;BME280;20229;49.856;19.030;2022-11-30T00:16:25;102466.70;;;0.03;96.93
33949;BME280;20229;49.856;19.030;2022-11-30T00:21:29;102473.90;;;0.04;96.93
33949;BME280;20229;49.856;19.030;2022-11-30T00:26:51;102476.50;;;-0.01;96.91
33949;BME280;20229;49.856;19.030;2022-11-30T00:31:55;102462.22;;;0.02;96.60
33949;BME280;20229;49.856;19.030;2022-11-30T00:37:18;102479.12;;;-0.06;97.17
33949;BME280;20229;49.856;19.030;2022-11-30T00:42:21;102474.70;;;-0.01;96.95
33949;BME280;20229;49.856;19.030;2022-11-30T00:47:43;102473.80;;;-0.03;97.04
33949;BME280;20229;49.856;19.030;2022-11-30T00:52:47;102472.96;;;0.02;97.10
33949;BME280;20229;49.856;19.030;2022-11-30T00:58:10;102481.90;;;0.01;97.11
33949;BME280;20229;49.856;19.030;2022-11-30T01:03:14;102480.17;;;0.04;97.05
33949;BME280;20229;49.856;19.030;2022-11-30T01:08:36;102481.08;;;0.06;96.95
33949;BME280;20229;49.856;19.030;2022-11-30T01:13:40;102474.01;;;0.11;96.93
33949;BME280;20229;49.856;19.030;2022-11-30T01:19:01;102472.17;;;0.09;96.85
33949;BME280;20229;49.856;19.030;2022-11-30T01:24:06;102473.12;;;0.11;96.60
33949;BME280;20229;49.856;19.030;2022-11-30T01:29:27;102465.84;;;0.04;96.67
33949;BME280;20229;49.856;19.030;2022-11-30T01:34:30;102462.33;;;0.09;96.54
33949;BME280;20229;49.856;19.030;2022-11-30T01:39:53;102465.86;;;0.05;96.55
33949;BME280;20229;49.856;19.030;2022-11-30T01:44:58;102469.49;;;0.10;96.56
33949;BME280;20229;49.856;19.030;2022-11-30T01:50:27;102475.76;;;0.09;96.39
33949;BME280;20229;49.856;19.030;2022-11-30T01:55:39;102470.38;;;0.08;96.50
33949;BME280;20229;49.856;19.030;2022-11-30T02:00:46;102473.90;;;0.04;96.52
33949;BME280;20229;49.856;19.030;2022-11-30T02:05:50;102476.60;;;0.07;96.60
33949;BME280;20229;49.856;19.030;2022-11-30T02:11:13;102475.70;;;0.05;96.40
33949;BME280;20229;49.856;19.030;2022-11-30T02:32:16;102472.96;;;0.02;96.78
33949;BME280;20229;49.856;19.030;2022-11-30T02:37:21;102486.39;;;0.03;96.34
33949;BME280;20229;49.856;19.030;2022-11-30T02:42:28;102490.86;;;0.01;96.28
33949;BME280;20229;49.856;19.030;2022-11-30T02:52:54;102487.18;;;-0.06;96.24
33949;BME280;20229;49.856;19.030;2022-11-30T02:57:57;102483.69;;;0.00;96.24
33949;BME280;20229;49.856;19.030;2022-11-30T03:03:20;102493.43;;;-0.07;96.45
33949;BME280;20229;49.856;19.030;2022-11-30T03:08:24;102489.02;;;-0.03;96.06
33949;BME280;20229;49.856;19.030;2022-11-30T03:13:46;102493.43;;;-0.07;96.40
33949;BME280;20229;49.856;19.030;2022-11-30T03:18:49;102484.45;;;-0.07;96.63
33949;BME280;20229;49.856;19.030;2022-11-30T03:24:11;102496.07;;;-0.08;96.56
33949;BME280;20229;49.856;19.030;2022-11-30T03:29:15;102500.60;;;-0.06;96.42
33949;BME280;20229;49.856;19.030;2022-11-30T03:34:37;102514.75;;;-0.16;96.66
33949;BME280;20229;49.856;19.030;2022-11-30T03:39:40;102506.80;;;-0.10;96.40
33949;BME280;20229;49.856;19.030;2022-11-30T03:45:04;102508.59;;;-0.09;96.56
33949;BME280;20229;49.856;19.030;2022-11-30T03:50:09;102516.76;;;-0.03;96.64
33949;BME280;20229;49.856;19.030;2022-11-30T03:55:29;102510.48;;;-0.03;96.31
33949;BME280;20229;49.856;19.030;2022-11-30T04:00:32;102513.24;;;0.03;96.10
33949;BME280;20229;49.856;19.030;2022-11-30T04:05:56;102523.98;;;0.02;96.00
33949;BME280;20229;49.856;19.030;2022-11-30T04:11:01;102503.45;;;0.04;95.87
33949;BME280;20229;49.856;19.030;2022-11-30T04:16:21;102514.02;;;-0.06;95.70
33949;BME280;20229;49.856;19.030;2022-11-30T04:21:24;102514.98;;;-0.01;95.68
33949;BME280;20229;49.856;19.030;2022-11-30T04:26:47;102522.98;;;-0.04;95.41
33949;BME280;20229;49.856;19.030;2022-11-30T04:31:50;102522.98;;;-0.04;95.39
33949;BME280;20229;49.856;19.030;2022-11-30T04:37:13;102527.44;;;-0.06;95.58
33949;BME280;20229;49.856;19.030;2022-11-30T04:42:16;102526.44;;;-0.11;95.65
33949;BME280;20229;49.856;19.030;2022-11-30T04:47:39;102532.59;;;-0.18;95.91
33949;BME280;20229;49.856;19.030;2022-11-30T04:52:42;102528.23;;;-0.11;96.00
33949;BME280;20229;49.856;19.030;2022-11-30T04:58:05;102531.80;;;-0.12;95.78
33949;BME280;20229;49.856;19.030;2022-11-30T05:03:09;102538.02;;;-0.15;95.82
33949;BME280;20229;49.856;19.030;2022-11-30T05:08:31;102542.53;;;-0.14;95.97
33949;BME280;20229;49.856;19.030;2022-11-30T05:13:34;102543.49;;;-0.09;95.48
33949;BME280;20229;49.856;19.030;2022-11-30T05:18:57;102538.02;;;-0.15;95.38
33949;BME280;20229;49.856;19.030;2022-11-30T05:24:00;102534.41;;;-0.17;95.56
33949;BME280;20229;49.856;19.030;2022-11-30T05:29:23;102543.32;;;-0.18;95.36
33949;BME280;20229;49.856;19.030;2022-11-30T05:34:26;102539.67;;;-0.23;95.29
33949;BME280;20229;49.856;19.030;2022-11-30T05:39:48;102553.04;;;-0.26;95.46
33949;BME280;20229;49.856;19.030;2022-11-30T05:44:52;102546.78;;;-0.25;95.45
33949;BME280;20229;49.856;19.030;2022-11-30T05:50:15;102553.03;;;-0.28;95.41
33949;BME280;20229;49.856;19.030;2022-11-30T05:55:18;102559.41;;;-0.21;95.49
33949;BME280;20229;49.856;19.030;2022-11-30T06:00:40;102559.36;;;-0.22;95.23
33949;BME280;20229;49.856;19.030;2022-11-30T06:05:44;102561.20;;;-0.20;94.79
33949;BME280;20229;49.856;19.030;2022-11-30T06:11:06;102570.02;;;-0.27;95.02
33949;BME280;20229;49.856;19.030;2022-11-30T06:16:10;102562.05;;;-0.22;94.89
33949;BME280;20229;49.856;19.030;2022-11-30T06:21:33;102562.80;;;-0.31;94.95
33949;BME280;20229;49.856;19.030;2022-11-30T06:26:37;102559.23;;;-0.30;95.27
33949;BME280;20229;49.856;19.030;2022-11-30T06:31:59;102578.65;;;-0.43;95.70
33949;BME280;20229;49.856;19.030;2022-11-30T06:37:05;102577.06;;;-0.34;95.66
33949;BME280;20229;49.856;19.030;2022-11-30T06:42:25;102576.17;;;-0.33;95.63
33949;BME280;20229;49.856;19.030;2022-11-30T06:47:30;102573.62;;;-0.25;95.51
33949;BME280;20229;49.856;19.030;2022-11-30T06:52:50;102578.14;;;-0.24;95.37
33949;BME280;20229;49.856;19.030;2022-11-30T06:57:54;102584.47;;;-0.19;95.30
33949;BME280;20229;49.856;19.030;2022-11-30T07:03:16;102592.53;;;-0.19;95.15
33949;BME280;20229;49.856;19.030;2022-11-30T07:08:19;102589.86;;;-0.19;95.16
33949;BME280;20229;49.856;19.030;2022-11-30T07:13:42;102589.91;;;-0.16;95.36
33949;BME280;20229;49.856;19.030;2022-11-30T07:18:47;102574.87;;;-0.06;94.99
33949;BME280;20229;49.856;19.030;2022-11-30T07:24:11;102582.99;;;-0.02;94.91
33949;BME280;20229;49.856;19.030;2022-11-30T07:29:26;102581.38;;;0.10;94.70
33949;BME280;20229;49.856;19.030;2022-11-30T07:34:34;102578.64;;;0.05;94.66
33949;BME280;20229;49.856;19.030;2022-11-30T07:39:37;102581.49;;;0.16;94.46
33949;BME280;20229;49.856;19.030;2022-11-30T07:45:00;102573.48;;;0.19;94.61
33949;BME280;20229;49.856;19.030;2022-11-30T07:50:05;102578.98;;;0.27;94.10
33949;BME280;20229;49.856;19.030;2022-11-30T07:55:26;102579.93;;;0.30;94.04
33949;BME280;20229;49.856;19.030;2022-11-30T08:00:29;102581.05;;;0.44;94.00
33949;BME280;20229;49.856;19.030;2022-11-30T08:05:51;102586.48;;;0.49;93.51
33949;BME280;20229;49.856;19.030;2022-11-30T08:10:56;102574.98;;;0.58;93.65
33949;BME280;20229;49.856;19.030;2022-11-30T08:16:20;102574.15;;;0.62;92.83
33949;BME280;20229;49.856;19.030;2022-11-30T08:21:24;102575.20;;;0.73;92.81
33949;BME280;20229;49.856;19.030;2022-11-30T08:26:44;102580.66;;;0.79;92.64
33949;BME280;20229;49.856;19.030;2022-11-30T08:31:48;102587.98;;;0.89;92.14
33949;BME280;20229;49.856;19.030;2022-11-30T08:37:10;102593.45;;;0.95;91.95
33949;BME280;20229;49.856;19.030;2022-11-30T08:42:13;102587.98;;;0.89;91.32
33949;BME280;20229;49.856;19.030;2022-11-30T08:47:36;102596.95;;;0.91;91.06
33949;BME280;20229;49.856;19.030;2022-11-30T08:52:39;102596.27;;;1.06;91.75
33949;BME280;20229;49.856;19.030;2022-11-30T08:58:02;102590.95;;;1.12;91.13
33949;BME280;20229;49.856;19.030;2022-11-30T09:03:05;102587.54;;;1.27;90.96
33949;BME280;20229;49.856;19.030;2022-11-30T09:08:28;102588.33;;;1.17;90.17
33949;BME280;20229;49.856;19.030;2022-11-30T09:13:31;102591.04;;;1.20;90.59
33949;BME280;20229;49.856;19.030;2022-11-30T09:18:54;102596.46;;;1.23;90.75
33949;BME280;20229;49.856;19.030;2022-11-30T09:23:57;102601.08;;;1.33;89.76
33949;BME280;20229;49.856;19.030;2022-11-30T09:29:20;102593.98;;;1.40;90.48
33949;BME280;20229;49.856;19.030;2022-11-30T09:34:23;102601.27;;;1.52;89.79
33949;BME280;20229;49.856;19.030;2022-11-30T09:39:46;102607.64;;;1.58;89.48
33949;BME280;20229;49.856;19.030;2022-11-30T09:50:20;102601.50;;;1.70;89.42
33949;BME280;20229;49.856;19.030;2022-11-30T09:55:33;102598.84;;;1.75;88.80
33949;BME280;20229;49.856;19.030;2022-11-30T10:00:41;102585.27;;;1.65;88.02
33949;BME280;20229;49.856;19.030;2022-11-30T10:05:46;102582.59;;;1.65;88.36
33949;BME280;20229;49.856;19.030;2022-11-30T10:26:53;102589.45;;;1.36;89.72
33949;BME280;20229;49.856;19.030;2022-11-30T10:31:59;102590.30;;;1.33;89.65
33949;BME280;20229;49.856;19.030;2022-11-30T10:37:10;102578.73;;;1.39;89.71
33949;BME280;20229;49.856;19.030;2022-11-30T10:42:29;102580.55;;;1.43;89.47
33949;BME280;20229;49.856;19.030;2022-11-30T10:47:34;102579.66;;;1.44;88.61
33949;BME280;20229;49.856;19.030;2022-11-30T10:52:50;102582.35;;;1.42;88.95
33949;BME280;20229;49.856;19.030;2022-11-30T11:08:28;102582.27;;;1.35;89.18
33949;BME280;20229;49.856;19.030;2022-11-30T11:13:41;102575.09;;;1.35;89.00
33949;BME280;20229;49.856;19.030;2022-11-30T11:18:52;102585.00;;;1.39;88.44
33949;BME280;20229;49.856;19.030;2022-11-30T11:24:08;102587.68;;;1.38;88.65
33949;BME280;20229;49.856;19.030;2022-11-30T11:34:37;102590.22;;;1.24;88.53
33949;BME280;20229;49.856;19.030;2022-11-30T11:39:41;102582.96;;;1.17;88.52
33949;BME280;20229;49.856;19.030;2022-11-30T11:44:58;102587.41;;;1.13;88.70
33949;BME280;20229;49.856;19.030;2022-11-30T11:55:23;102585.57;;;1.12;88.96
33949;BME280;20229;49.856;19.030;2022-11-30T12:00:37;102599.06;;;1.14;88.95
33949;BME280;20229;49.856;19.030;2022-11-30T12:06:09;102593.68;;;1.14;88.65
33949;BME280;20229;49.856;19.030;2022-11-30T12:11:22;102593.73;;;1.20;88.71
33949;BME280;20229;49.856;19.030;2022-11-30T12:32:26;102598.84;;;0.99;88.65
33949;BME280;20229;49.856;19.030;2022-11-30T12:42:55;102591.75;;;1.04;88.76
33949;BME280;20229;49.856;19.030;2022-11-30T12:53:30;102589.82;;;0.93;88.87
33949;BME280;20229;49.856;19.030;2022-11-30T13:14:24;102576.13;;;0.77;89.14
33949;BME280;20229;49.856;19.030;2022-11-30T13:24:48;102593.05;;;0.68;89.34
33949;BME280;20229;49.856;19.030;2022-11-30T13:40:24;102587.43;;;0.53;89.69
33949;BME280;20229;49.856;19.030;2022-11-30T13:45:32;102581.10;;;0.47;90.29
33949;BME280;20229;49.856;19.030;2022-11-30T13:50:38;102583.64;;;0.38;90.19
33949;BME280;20229;49.856;19.030;2022-11-30T13:55:50;102597.01;;;0.35;90.00
33949;BME280;20229;49.856;19.030;2022-11-30T14:16:41;102603.17;;;0.28;90.96
33949;BME280;20229;49.856;19.030;2022-11-30T14:21:45;102598.68;;;0.27;91.19
33949;BME280;20229;49.856;19.030;2022-11-30T14:26:50;102587.88;;;0.24;91.04
33949;BME280;20229;49.856;19.030;2022-11-30T14:32:14;102597.73;;;0.22;91.36
33949;BME280;20229;49.856;19.030;2022-11-30T14:37:29;102594.99;;;0.20;91.29
33949;BME280;20229;49.856;19.030;2022-11-30T14:42:35;102597.56;;;0.13;91.36
33949;BME280;20229;49.856;19.030;2022-11-30T14:47:39;102595.70;;;0.10;91.45
33949;BME280;20229;49.856;19.030;2022-11-30T15:03:29;102607.14;;;-0.03;91.82
33949;BME280;20229;49.856;19.030;2022-11-30T15:08:45;102602.61;;;-0.06;92.08
33949;BME280;20229;49.856;19.030;2022-11-30T15:13:54;102606.19;;;-0.07;92.18
33949;BME280;20229;49.856;19.030;2022-11-30T15:18:59;102612.52;;;-0.02;91.94
33949;BME280;20229;49.856;19.030;2022-11-30T15:24:15;102625.00;;;-0.04;92.17
33949;BME280;20229;49.856;19.030;2022-11-30T15:29:26;102621.48;;;-0.01;91.92
33949;BME280;20229;49.856;19.030;2022-11-30T15:34:47;102624.09;;;-0.06;92.31
33949;BME280;20229;49.856;19.030;2022-11-30T15:39:54;102630.43;;;-0.01;92.41
33949;BME280;20229;49.856;19.030;2022-11-30T15:50:30;102641.28;;;0.04;92.24
33949;BME280;20229;49.856;19.030;2022-11-30T15:55:43;102654.54;;;-0.04;92.61
33949;BME280;20229;49.856;19.030;2022-11-30T16:06:12;102658.95;;;-0.07;92.89
33949;BME280;20229;49.856;19.030;2022-11-30T16:11:18;102659.00;;;-0.06;92.80
33949;BME280;20229;49.856;19.030;2022-11-30T16:16:29;102659.84;;;-0.08;92.87
33949;BME280;20229;49.856;19.030;2022-11-30T16:21:33;102662.57;;;-0.07;93.22
33949;BME280;20229;49.856;19.030;2022-11-30T16:26:49;102660.68;;;-0.11;93.28
33949;BME280;20229;49.856;19.030;2022-11-30T16:31:53;102651.83;;;-0.07;93.38
33949;BME280;20229;49.856;19.030;2022-11-30T16:37:15;102659.91;;;-0.04;93.36
33949;BME280;20229;49.856;19.030;2022-11-30T16:42:19;102660.03;;;0.03;93.26
33949;BME280;20229;49.856;19.030;2022-11-30T16:47:42;102659.91;;;-0.04;93.36
33949;BME280;20229;49.856;19.030;2022-11-30T16:52:46;102659.98;;;-0.01;93.31
33949;BME280;20229;49.856;19.030;2022-11-30T16:58:07;102674.22;;;-0.05;93.38
33949;BME280;20229;49.856;19.030;2022-11-30T17:08:33;102670.57;;;-0.10;93.02
33949;BME280;20229;49.856;19.030;2022-11-30T17:13:36;102669.74;;;-0.06;92.78
33949;BME280;20229;49.856;19.030;2022-11-30T17:18:59;102669.60;;;-0.13;93.08
33949;BME280;20229;49.856;19.030;2022-11-30T17:24:03;102667.88;;;-0.08;92.78
33949;BME280;20229;49.856;19.030;2022-11-30T17:29:25;102683.98;;;-0.10;93.05
33949;BME280;20229;49.856;19.030;2022-11-30T17:34:28;102674.17;;;-0.08;92.94
33949;BME280;20229;49.856;19.030;2022-11-30T17:39:50;102675.04;;;-0.10;92.70
33949;BME280;20229;49.856;19.030;2022-11-30T17:44:54;102672.42;;;-0.06;92.74
33949;BME280;20229;49.856;19.030;2022-11-30T17:50:17;102672.42;;;-0.06;93.02
33949;BME280;20229;49.856;19.030;2022-11-30T17:55:20;102669.81;;;-0.01;93.06
33949;BME280;20229;49.856;19.030;2022-11-30T18:00:42;102676.02;;;-0.04;92.95
33949;BME280;20229;49.856;19.030;2022-11-30T18:05:46;102668.97;;;0.02;93.06
33949;BME280;20229;49.856;19.030;2022-11-30T18:11:10;102674.28;;;-0.02;93.11
33949;BME280;20229;49.856;19.030;2022-11-30T18:16:19;102669.75;;;-0.04;93.29
33949;BME280;20229;49.856;19.030;2022-11-30T18:21:34;102677.73;;;-0.09;93.50
33949;BME280;20229;49.856;19.030;2022-11-30T18:26:38;102674.22;;;-0.05;93.52
33949;BME280;20229;49.856;19.030;2022-11-30T18:32:00;102681.40;;;-0.04;93.38
33949;BME280;20229;49.856;19.030;2022-11-30T18:37:03;102673.39;;;-0.02;93.23
33949;BME280;20229;49.856;19.030;2022-11-30T18:42:26;102684.96;;;-0.05;93.40
33949;BME280;20229;49.856;19.030;2022-11-30T18:47:29;102685.02;;;-0.02;93.49
33949;BME280;20229;49.856;19.030;2022-11-30T18:52:52;102691.23;;;-0.06;92.91
33949;BME280;20229;49.856;19.030;2022-11-30T18:57:57;102693.96;;;-0.03;92.48
33949;BME280;20229;49.856;19.030;2022-11-30T19:03:18;102696.66;;;-0.03;92.63
33949;BME280;20229;49.856;19.030;2022-11-30T19:08:21;102709.25;;;0.02;92.70
33949;BME280;20229;49.856;19.030;2022-11-30T19:13:44;102715.30;;;-0.10;92.42
33949;BME280;20229;49.856;19.030;2022-11-30T19:18:47;102709.05;;;-0.09;92.53
33949;BME280;20229;49.856;19.030;2022-11-30T19:24:09;102724.26;;;-0.10;92.76
33949;BME280;20229;49.856;19.030;2022-11-30T19:29:13;102718.88;;;-0.10;92.91
33949;BME280;20229;49.856;19.030;2022-11-30T19:34:35;102723.23;;;-0.16;93.03
33949;BME280;20229;49.856;19.030;2022-11-30T19:39:39;102717.86;;;-0.16;92.65
33949;BME280;20229;49.856;19.030;2022-11-30T19:45:01;102720.46;;;-0.21;92.92
33949;BME280;20229;49.856;19.030;2022-11-30T19:50:06;102709.75;;;-0.18;92.97
33949;BME280;20229;49.856;19.030;2022-11-30T19:55:27;102719.66;;;-0.15;93.15
33949;BME280;20229;49.856;19.030;2022-11-30T20:00:30;102716.21;;;-0.10;93.17
33949;BME280;20229;49.856;19.030;2022-11-30T20:05:53;102721.51;;;-0.13;93.28
33949;BME280;20229;49.856;19.030;2022-11-30T20:10:56;102704.56;;;-0.10;93.16
33949;BME280;20229;49.856;19.030;2022-11-30T20:16:20;102704.52;;;-0.12;93.25
33949;BME280;20229;49.856;19.030;2022-11-30T20:21:26;102710.84;;;-0.08;93.30
33949;BME280;20229;49.856;19.030;2022-11-30T20:26:45;102708.08;;;-0.13;93.28
33949;BME280;20229;49.856;19.030;2022-11-30T20:31:49;102704.58;;;-0.09;93.32
33949;BME280;20229;49.856;19.030;2022-11-30T20:37:11;102708.96;;;-0.14;93.28
33949;BME280;20229;49.856;19.030;2022-11-30T20:42:14;102704.52;;;-0.12;92.86
33949;BME280;20229;49.856;19.030;2022-11-30T20:47:36;102708.84;;;-0.20;93.28
33949;BME280;20229;49.856;19.030;2022-11-30T20:52:40;102688.33;;;-0.16;93.42
33949;BME280;20229;49.856;19.030;2022-11-30T20:58:02;102702.65;;;-0.16;93.21
33949;BME280;20229;49.856;19.030;2022-11-30T21:03:05;102698.18;;;-0.15;93.37
33949;BME280;20229;49.856;19.030;2022-11-30T21:08:31;102689.16;;;-0.19;93.35
33949;BME280;20229;49.856;19.030;2022-11-30T21:13:36;102690.17;;;-0.14;93.56
33949;BME280;20229;49.856;19.030;2022-11-30T21:18:54;102693.64;;;-0.18;93.30
33949;BME280;20229;49.856;19.030;2022-11-30T21:24:00;102702.72;;;-0.13;92.97
33949;BME280;20229;49.856;19.030;2022-11-30T21:29:19;102705.34;;;-0.14;93.05
33949;BME280;20229;49.856;19.030;2022-11-30T21:34:23;102694.66;;;-0.13;92.75
33949;BME280;20229;49.856;19.030;2022-11-30T21:39:45;102706.23;;;-0.17;92.93
33949;BME280;20229;49.856;19.030;2022-11-30T21:44:48;102712.50;;;-0.15;92.56
33949;BME280;20229;49.856;19.030;2022-11-30T21:50:12;102715.17;;;-0.16;92.99
33949;BME280;20229;49.856;19.030;2022-11-30T21:55:15;102714.41;;;-0.09;92.62
33949;BME280;20229;49.856;19.030;2022-11-30T22:00:37;102715.30;;;-0.10;92.11
33949;BME280;20229;49.856;19.030;2022-11-30T22:05:41;102717.98;;;-0.10;91.93
33949;BME280;20229;49.856;19.030;2022-11-30T22:11:06;102723.35;;;-0.10;91.97
33949;BME280;20229;49.856;19.030;2022-11-30T22:16:14;102714.37;;;-0.11;91.55
33949;BME280;20229;49.856;19.030;2022-11-30T22:21:29;102722.33;;;-0.17;91.83
33949;BME280;20229;49.856;19.030;2022-11-30T22:26:37;102713.39;;;-0.16;91.92
33949;BME280;20229;49.856;19.030;2022-11-30T22:31:55;102718.69;;;-0.19;92.06
33949;BME280;20229;49.856;19.030;2022-11-30T22:36:58;102721.44;;;-0.16;91.73
33949;BME280;20229;49.856;19.030;2022-11-30T22:42:20;102709.73;;;-0.21;91.96
33949;BME280;20229;49.856;19.030;2022-11-30T22:47:24;102713.32;;;-0.19;91.67
33949;BME280;20229;49.856;19.030;2022-11-30T22:52:47;102703.39;;;-0.25;91.65
33949;BME280;20229;49.856;19.030;2022-11-30T22:57:50;102702.45;;;-0.25;91.74
33949;BME280;20229;49.856;19.030;2022-11-30T23:03:12;102699.77;;;-0.25;91.59
33949;BME280;20229;49.856;19.030;2022-11-30T23:08:16;102689.10;;;-0.22;91.35
33949;BME280;20229;49.856;19.030;2022-11-30T23:13:39;102680.98;;;-0.25;91.29
33949;BME280;20229;49.856;19.030;2022-11-30T23:18:46;102678.41;;;-0.20;90.84
33949;BME280;20229;49.856;19.030;2022-11-30T23:24:06;102682.88;;;-0.21;91.16
33949;BME280;20229;49.856;19.030;2022-11-30T23:29:12;102675.80;;;-0.16;90.76
33949;BME280;20229;49.856;19.030;2022-11-30T23:34:29;102667.73;;;-0.17;90.82
33949;BME280;20229;49.856;19.030;2022-11-30T23:39:33;102672.24;;;-0.15;90.79
33949;BME280;20229;49.856;19.030;2022-11-30T23:44:55;102669.48;;;-0.18;90.85
33949;BME280;20229;49.856;19.030;2022-11-30T23:50:03;102663.34;;;-0.14;90.90
33949;BME280;20229;49.856;19.030;2022-11-30T23:55:21;102669.55;;;-0.15;90.79
